Vicosa do Ceara, Brazil
Current Conditions -  °F | °C
As of 4:00 PM on Thursday 27 Nov 2014 (Local Time) from SBPB Reporting Station
Scattered Clouds Scattered Clouds  
Wind Chill: 88°   Ceiling: Unl
Heat Index: 96°   Visibility: 6mi
Dew Point: 73°   Wind: 22mph
Humidity: 62%   Direction: 70°ENE
Pressure: 29.8"   Gusts: NA
Location:  3.56°S, 41.09°W
Report Text: SBPB 271900Z 07019KT 9999 SCT020 31/23 Q1009
Loading
Personal Weather Stations






























Interactive Weather Map New forecast layout! Learn more

10-Day Weather Forecast

Advertisements
Track Severe Weather on mobile